Time;durP1;ratioP1;P1;durP2;ratioP2;P2;SDS_P1;SDS_P2;PMS_P1;PMS_P2;Temp;Humidity;BMP_temperature;BMP_pressure;BME280_temperature;BME280_humidity;BME280_pressure;Samples;Min_cycle;Max_cycle;Signal;HPM_P1;HPM_P2
2023/01/22 00:02:01;;;;;;;31.90;14.70;;;;;;;;;;5077866;28;20169;-72
2023/01/22 00:04:26;;;;;;;35.77;15.07;;;;;;;;;;5078100;28;20215;-72
2023/01/22 00:06:51;;;;;;;39.40;16.07;;;;;;;;;;5078476;28;20531;-72
2023/01/22 00:09:16;;;;;;;31.70;14.77;;;;;;;;;;5064080;28;20262;-72
2023/01/22 00:11:41;;;;;;;29.90;13.10;;;;;;;;;;5082550;28;20271;-72
2023/01/22 00:14:07;;;;;;;29.20;14.67;;;;;;;;;;5081824;28;20199;-73
2023/01/22 00:16:32;;;;;;;31.93;14.97;;;;;;;;;;5085786;28;20200;-72
2023/01/22 00:18:57;;;;;;;31.30;14.30;;;;;;;;;;5079636;28;20199;-72
2023/01/22 00:21:23;;;;;;;29.00;12.90;;;;;;;;;;5084656;28;20164;-72
2023/01/22 00:23:48;;;;;;;27.50;13.80;;;;;;;;;;5075024;28;20603;-72
2023/01/22 00:26:15;;;;;;;27.63;13.50;;;;;;;;;;5082314;28;20175;-72
2023/01/22 00:28:41;;;;;;;23.83;14.37;;;;;;;;;;5082655;28;20200;-72
2023/01/22 00:31:06;;;;;;;26.00;13.47;;;;;;;;;;5081964;28;20186;-73
2023/01/22 00:33:32;;;;;;;25.97;14.53;;;;;;;;;;5080521;28;20184;-72
2023/01/22 00:36:07;;;;;;;31.67;15.37;;;;;;;;;;5081749;28;20195;-72
2023/01/22 00:38:33;;;;;;;25.83;14.03;;;;;;;;;;5080384;28;20218;-72
2023/01/22 00:41:02;;;;;;;26.60;13.30;;;;;;;;;;5080523;28;20196;-72
2023/01/22 00:43:28;;;;;;;26.07;15.03;;;;;;;;;;5081917;28;20718;-71
2023/01/22 00:45:53;;;;;;;24.63;12.77;;;;;;;;;;5063777;28;20275;-73
2023/01/22 00:48:18;;;;;;;27.97;14.43;;;;;;;;;;5081949;28;20201;-71
2023/01/22 00:50:43;;;;;;;25.97;13.93;;;;;;;;;;5083324;28;20646;-72
2023/01/22 00:53:09;;;;;;;27.63;14.10;;;;;;;;;;5081746;28;20199;-72
2023/01/22 00:55:34;;;;;;;27.57;15.20;;;;;;;;;;5082905;28;20173;-72
2023/01/22 00:57:59;;;;;;;25.50;14.40;;;;;;;;;;5083243;28;20287;-72
2023/01/22 01:00:24;;;;;;;25.10;13.53;;;;;;;;;;5082174;28;20172;-72
2023/01/22 01:05:33;;;;;;;30.40;15.53;;;;;;;;;;5082676;28;20195;-72
2023/01/22 01:07:58;;;;;;;26.90;13.80;;;;;;;;;;5082526;28;20581;-72
2023/01/22 01:10:23;;;;;;;25.67;15.07;;;;;;;;;;5065470;28;20645;-73
2023/01/22 01:12:49;;;;;;;26.50;13.90;;;;;;;;;;5082657;28;20839;-73
2023/01/22 01:15:14;;;;;;;28.83;15.57;;;;;;;;;;5064566;28;20637;-72
2023/01/22 01:17:39;;;;;;;24.47;14.67;;;;;;;;;;5083127;28;20216;-72
2023/01/22 01:20:05;;;;;;;27.67;15.80;;;;;;;;;;5080374;28;20187;-72
2023/01/22 01:22:30;;;;;;;28.60;14.93;;;;;;;;;;5081692;28;20164;-72
2023/01/22 01:24:55;;;;;;;27.07;13.53;;;;;;;;;;5082986;28;20187;-72
2023/01/22 01:27:20;;;;;;;26.73;13.23;;;;;;;;;;5056292;28;20192;-72
2023/01/22 01:29:46;;;;;;;24.50;13.10;;;;;;;;;;5078919;28;20184;-72
2023/01/22 01:32:11;;;;;;;24.70;13.47;;;;;;;;;;5083019;28;20176;-72
2023/01/22 01:34:36;;;;;;;23.73;12.57;;;;;;;;;;5081026;28;20180;-72
2023/01/22 01:37:01;;;;;;;22.87;13.27;;;;;;;;;;5056531;28;20216;-73
2023/01/22 01:39:27;;;;;;;25.67;13.47;;;;;;;;;;5083177;28;20176;-73
2023/01/22 01:41:52;;;;;;;26.30;13.90;;;;;;;;;;5079419;28;20212;-72
2023/01/22 01:44:18;;;;;;;25.17;13.13;;;;;;;;;;5081487;28;20230;-72
2023/01/22 01:46:52;;;;;;;22.90;13.00;;;;;;;;;;5076808;28;20195;-72
2023/01/22 01:49:26;;;;;;;22.87;12.40;;;;;;;;;;5083420;28;20208;-72
2023/01/22 01:51:54;;;;;;;23.50;12.97;;;;;;;;;;5086289;28;20183;-72
2023/01/22 01:54:19;;;;;;;22.43;11.90;;;;;;;;;;5082597;28;20253;-72
2023/01/22 01:56:49;;;;;;;20.47;13.10;;;;;;;;;;5081026;28;20672;-71
2023/01/22 01:59:17;;;;;;;20.37;11.47;;;;;;;;;;5080554;28;20677;-72
2023/01/22 02:01:44;;;;;;;20.73;11.07;;;;;;;;;;5083676;28;20185;-72
2023/01/22 02:04:09;;;;;;;25.10;13.20;;;;;;;;;;5083351;28;20221;-72
2023/01/22 02:06:34;;;;;;;24.33;12.30;;;;;;;;;;5064973;28;20188;-72
2023/01/22 02:09:00;;;;;;;17.40;10.77;;;;;;;;;;5079374;28;20208;-72
2023/01/22 02:11:26;;;;;;;23.20;11.63;;;;;;;;;;5080251;28;20547;-72
2023/01/22 02:13:54;;;;;;;18.80;10.93;;;;;;;;;;5081536;28;20176;-72
2023/01/22 02:16:19;;;;;;;22.00;13.00;;;;;;;;;;5080302;28;20204;-71
2023/01/22 02:18:45;;;;;;;21.37;11.60;;;;;;;;;;5081905;28;20244;-71
2023/01/22 02:21:30;;;;;;;18.37;10.77;;;;;;;;;;5081453;28;20181;-72
2023/01/22 02:23:55;;;;;;;22.07;12.20;;;;;;;;;;5076661;28;20196;-72
2023/01/22 02:26:20;;;;;;;21.13;11.67;;;;;;;;;;5063117;28;20188;-72
2023/01/22 02:28:46;;;;;;;20.13;10.77;;;;;;;;;;5061506;28;20200;-72
2023/01/22 02:31:11;;;;;;;18.33;11.17;;;;;;;;;;5063139;28;20561;-72
2023/01/22 02:33:36;;;;;;;17.03;9.80;;;;;;;;;;5079781;28;20234;-72
2023/01/22 02:36:01;;;;;;;18.43;10.70;;;;;;;;;;5080912;28;20267;-72
2023/01/22 02:38:27;;;;;;;24.40;10.77;;;;;;;;;;5079138;28;20249;-72
2023/01/22 02:40:52;;;;;;;22.03;10.53;;;;;;;;;;5079516;28;20190;-72
2023/01/22 02:43:18;;;;;;;21.60;10.57;;;;;;;;;;5081240;28;20634;-72
2023/01/22 02:45:43;;;;;;;19.97;11.07;;;;;;;;;;5060804;28;20241;-72
2023/01/22 02:48:08;;;;;;;20.60;10.30;;;;;;;;;;5081526;28;20200;-73
2023/01/22 02:50:33;;;;;;;19.33;10.33;;;;;;;;;;5079669;28;20180;-72
2023/01/22 02:52:58;;;;;;;16.13;9.70;;;;;;;;;;5082300;28;20196;-72
2023/01/22 02:55:24;;;;;;;21.07;10.60;;;;;;;;;;5080674;28;20183;-73
2023/01/22 02:57:49;;;;;;;19.33;9.30;;;;;;;;;;5078798;28;20236;-73
2023/01/22 03:00:14;;;;;;;16.63;9.40;;;;;;;;;;5080606;28;20175;-73
2023/01/22 03:02:40;;;;;;;17.27;9.73;;;;;;;;;;5082294;28;20180;-72
2023/01/22 03:05:05;;;;;;;16.30;9.33;;;;;;;;;;5079353;28;20585;-73
2023/01/22 03:07:43;;;;;;;19.67;10.70;;;;;;;;;;5081020;28;20264;-72
2023/01/22 03:10:13;;;;;;;20.67;10.50;;;;;;;;;;5080048;28;20184;-72
2023/01/22 03:23:34;;;;;;;17.50;8.87;;;;;;;;;;5079017;28;20210;-72
2023/01/22 03:25:59;;;;;;;19.33;9.77;;;;;;;;;;5079375;28;20177;-72
2023/01/22 03:28:25;;;;;;;18.80;9.23;;;;;;;;;;5078251;28;20214;-72
2023/01/22 03:30:50;;;;;;;19.83;9.27;;;;;;;;;;5078765;28;20617;-73
2023/01/22 03:33:15;;;;;;;16.03;8.47;;;;;;;;;;5078665;28;20617;-72
2023/01/22 03:35:40;;;;;;;16.97;9.00;;;;;;;;;;5081195;28;20185;-73
2023/01/22 03:38:06;;;;;;;18.53;9.47;;;;;;;;;;5061614;28;20306;-72
2023/01/22 03:40:31;;;;;;;17.40;9.23;;;;;;;;;;5057059;28;20302;-72
2023/01/22 03:42:56;;;;;;;19.13;9.30;;;;;;;;;;5079582;28;20184;-72
2023/01/22 03:45:21;;;;;;;15.03;9.10;;;;;;;;;;5079433;28;20191;-73
2023/01/22 03:47:46;;;;;;;17.40;9.40;;;;;;;;;;5077637;28;20690;-71
2023/01/22 03:50:12;;;;;;;17.00;9.70;;;;;;;;;;5078032;28;20215;-74
2023/01/22 03:52:37;;;;;;;16.97;8.03;;;;;;;;;;5081792;28;20626;-70
2023/01/22 03:55:02;;;;;;;16.93;8.50;;;;;;;;;;5079217;28;20192;-73
2023/01/22 03:57:28;;;;;;;16.20;8.70;;;;;;;;;;5079201;28;20268;-70
2023/01/22 03:59:54;;;;;;;20.17;9.77;;;;;;;;;;5079100;28;20263;-72
2023/01/22 04:02:19;;;;;;;14.70;8.67;;;;;;;;;;5080071;28;20298;-72
2023/01/22 04:04:46;;;;;;;21.47;9.50;;;;;;;;;;5082182;28;20180;-71
2023/01/22 04:07:11;;;;;;;23.17;9.60;;;;;;;;;;5077343;28;20180;-72
2023/01/22 04:09:36;;;;;;;21.10;9.80;;;;;;;;;;5066519;22;20294;-76
2023/01/22 04:12:02;;;;;;;21.13;9.40;;;;;;;;;;5062072;28;20181;-76
2023/01/22 04:14:27;;;;;;;17.33;8.30;;;;;;;;;;5061022;28;20190;-77
2023/01/22 04:16:52;;;;;;;20.20;9.90;;;;;;;;;;5059565;28;20197;-76
2023/01/22 04:19:18;;;;;;;20.90;9.47;;;;;;;;;;5059584;28;20204;-77
2023/01/22 04:21:43;;;;;;;21.03;9.77;;;;;;;;;;5061296;28;20700;-77
2023/01/22 04:24:08;;;;;;;18.87;9.10;;;;;;;;;;5060455;28;20192;-77
2023/01/22 04:26:33;;;;;;;18.83;9.37;;;;;;;;;;5060452;28;20204;-77
2023/01/22 04:28:58;;;;;;;20.37;9.50;;;;;;;;;;5059025;28;20658;-74
2023/01/22 04:31:24;;;;;;;21.30;9.43;;;;;;;;;;5059167;28;20181;-75
2023/01/22 04:33:49;;;;;;;19.97;9.63;;;;;;;;;;5060352;28;20188;-75
2023/01/22 04:36:14;;;;;;;18.33;9.87;;;;;;;;;;5050963;28;20224;-77
2023/01/22 04:38:39;;;;;;;17.77;8.63;;;;;;;;;;5060763;28;20578;-77
2023/01/22 04:41:04;;;;;;;17.73;9.37;;;;;;;;;;5058086;28;20169;-76
2023/01/22 04:43:30;;;;;;;21.50;10.60;;;;;;;;;;5051116;28;20212;-75
2023/01/22 04:45:55;;;;;;;18.83;10.03;;;;;;;;;;5060632;28;20284;-76
2023/01/22 04:48:20;;;;;;;19.27;10.30;;;;;;;;;;5059013;28;20204;-77
2023/01/22 04:50:45;;;;;;;23.50;10.47;;;;;;;;;;5061875;28;20169;-76
2023/01/22 04:53:10;;;;;;;21.57;11.43;;;;;;;;;;5050811;28;20180;-76
2023/01/22 04:55:36;;;;;;;17.10;9.60;;;;;;;;;;5063417;28;20588;-77
2023/01/22 04:58:01;;;;;;;21.90;10.53;;;;;;;;;;5062919;28;20621;-77
2023/01/22 05:00:27;;;;;;;20.20;10.50;;;;;;;;;;5063388;28;20192;-76
2023/01/22 05:02:59;;;;;;;25.50;10.77;;;;;;;;;;5062697;28;20181;-77
2023/01/22 05:05:25;;;;;;;17.40;10.33;;;;;;;;;;5066208;28;20184;-76
2023/01/22 05:07:51;;;;;;;19.87;10.33;;;;;;;;;;5064876;28;20204;-77
2023/01/22 05:10:16;;;;;;;19.40;9.97;;;;;;;;;;5064163;28;20177;-77
2023/01/22 05:12:41;;;;;;;19.87;10.00;;;;;;;;;;5064190;28;20203;-77
2023/01/22 05:15:07;;;;;;;19.03;9.67;;;;;;;;;;5053831;28;20234;-77
2023/01/22 05:17:32;;;;;;;19.00;9.40;;;;;;;;;;5064112;28;20198;-77
2023/01/22 05:19:57;;;;;;;17.17;9.47;;;;;;;;;;5053883;28;20185;-77
2023/01/22 05:22:22;;;;;;;18.73;10.23;;;;;;;;;;5063493;28;20173;-77
2023/01/22 05:24:48;;;;;;;22.33;9.73;;;;;;;;;;5053439;28;20731;-77
2023/01/22 05:27:13;;;;;;;16.27;8.50;;;;;;;;;;5062736;28;20177;-77
2023/01/22 05:29:38;;;;;;;17.77;9.47;;;;;;;;;;5063271;28;20843;-77
2023/01/22 05:32:03;;;;;;;15.80;8.87;;;;;;;;;;5064944;28;20273;-77
2023/01/22 05:34:29;;;;;;;19.67;9.70;;;;;;;;;;5061926;28;20591;-76
2023/01/22 05:36:54;;;;;;;19.87;8.73;;;;;;;;;;5055076;28;20693;-77
2023/01/22 05:39:19;;;;;;;18.63;9.23;;;;;;;;;;5058637;28;20196;-76
2023/01/22 05:41:44;;;;;;;19.37;9.30;;;;;;;;;;5063975;28;20208;-74
2023/01/22 05:44:10;;;;;;;16.77;8.63;;;;;;;;;;5063457;28;20662;-76
2023/01/22 05:46:36;;;;;;;16.23;9.53;;;;;;;;;;5063382;28;20920;-75
2023/01/22 05:49:01;;;;;;;13.60;8.33;;;;;;;;;;5062880;28;20197;-76
2023/01/22 05:51:26;;;;;;;17.33;9.20;;;;;;;;;;5066106;28;20678;-77
2023/01/22 05:53:51;;;;;;;14.27;8.27;;;;;;;;;;5061332;28;20269;-76
2023/01/22 05:56:17;;;;;;;16.87;9.83;;;;;;;;;;5062296;28;20216;-77
2023/01/22 05:58:42;;;;;;;19.00;9.50;;;;;;;;;;5061534;28;20816;-76
2023/01/22 06:01:07;;;;;;;17.30;8.43;;;;;;;;;;5061392;28;20241;-76
2023/01/22 06:03:32;;;;;;;17.67;9.07;;;;;;;;;;5062274;28;20646;-76
2023/01/22 06:06:02;;;;;;;18.17;9.10;;;;;;;;;;5060530;28;20189;-76
2023/01/22 06:08:28;;;;;;;16.20;9.13;;;;;;;;;;5060114;28;20217;-75
2023/01/22 06:11:04;;;;;;;15.23;8.83;;;;;;;;;;5062639;28;20431;-77
2023/01/22 06:13:30;;;;;;;15.03;8.17;;;;;;;;;;5060580;28;20180;-77
2023/01/22 06:15:55;;;;;;;16.33;9.67;;;;;;;;;;5062418;28;20599;-77
2023/01/22 06:18:21;;;;;;;16.97;9.20;;;;;;;;;;5060884;28;20284;-76
2023/01/22 06:20:46;;;;;;;20.03;9.77;;;;;;;;;;5061446;28;20196;-77
2023/01/22 06:23:12;;;;;;;18.47;9.60;;;;;;;;;;5063145;28;20256;-75
2023/01/22 06:25:37;;;;;;;13.33;7.67;;;;;;;;;;5062210;28;20856;-76
2023/01/22 06:28:02;;;;;;;14.50;7.90;;;;;;;;;;5060528;28;20295;-76
2023/01/22 06:30:27;;;;;;;14.63;8.63;;;;;;;;;;5059060;28;20251;-76
2023/01/22 06:32:53;;;;;;;12.33;7.77;;;;;;;;;;5061924;28;20646;-76
2023/01/22 06:35:18;;;;;;;19.00;8.70;;;;;;;;;;5059878;28;21826;-77
2023/01/22 06:37:43;;;;;;;13.50;6.97;;;;;;;;;;5061400;28;20204;-77
2023/01/22 06:40:09;;;;;;;13.73;8.40;;;;;;;;;;5060669;28;20172;-76
2023/01/22 06:42:35;;;;;;;14.57;7.60;;;;;;;;;;5053734;28;20177;-76
2023/01/22 06:45:00;;;;;;;14.17;7.70;;;;;;;;;;5060941;28;20213;-76
2023/01/22 06:47:25;;;;;;;11.43;7.07;;;;;;;;;;5061282;28;20588;-76
2023/01/22 06:49:51;;;;;;;12.13;7.77;;;;;;;;;;5061066;28;20249;-76
2023/01/22 06:52:16;;;;;;;13.07;7.97;;;;;;;;;;5060178;28;20185;-76
2023/01/22 06:54:41;;;;;;;11.73;7.60;;;;;;;;;;5061180;28;20184;-75
2023/01/22 06:57:06;;;;;;;15.53;7.90;;;;;;;;;;5061149;28;20630;-77
2023/01/22 06:59:31;;;;;;;12.80;8.10;;;;;;;;;;5049187;28;20226;-76
2023/01/22 07:01:57;;;;;;;13.60;8.10;;;;;;;;;;5060262;28;20178;-77
2023/01/22 07:04:22;;;;;;;18.17;8.40;;;;;;;;;;5059418;28;20230;-76
2023/01/22 07:06:47;;;;;;;11.90;7.60;;;;;;;;;;5061311;28;20185;-77
2023/01/22 07:09:12;;;;;;;14.07;7.20;;;;;;;;;;5060965;28;20240;-76
2023/01/22 07:11:37;;;;;;;12.67;8.37;;;;;;;;;;5060018;28;20221;-77
2023/01/22 07:14:03;;;;;;;11.10;7.10;;;;;;;;;;5063064;28;20273;-77
2023/01/22 07:16:28;;;;;;;12.30;7.40;;;;;;;;;;5052784;28;20211;-77
2023/01/22 07:18:53;;;;;;;12.77;6.30;;;;;;;;;;5060822;28;20219;-77
2023/01/22 07:21:18;;;;;;;10.70;7.23;;;;;;;;;;5060197;28;20209;-76
2023/01/22 07:23:43;;;;;;;10.53;5.83;;;;;;;;;;5076891;28;20646;-77
2023/01/22 07:26:09;;;;;;;10.03;6.80;;;;;;;;;;5059930;28;20184;-76
2023/01/22 07:28:34;;;;;;;15.20;8.30;;;;;;;;;;5058787;28;20196;-77
2023/01/22 07:30:59;;;;;;;12.57;7.03;;;;;;;;;;5060044;28;20173;-77
2023/01/22 07:33:24;;;;;;;12.07;6.77;;;;;;;;;;5060383;28;20561;-77
2023/01/22 07:35:56;;;;;;;13.60;6.47;;;;;;;;;;5060756;28;20181;-75
2023/01/22 07:38:22;;;;;;;11.03;6.73;;;;;;;;;;5060105;28;20204;-77
2023/01/22 07:40:48;;;;;;;17.90;8.27;;;;;;;;;;5059450;28;20195;-77
2023/01/22 07:43:14;;;;;;;11.93;6.70;;;;;;;;;;5060007;28;20634;-77
2023/01/22 07:45:39;;;;;;;15.17;7.43;;;;;;;;;;5063101;28;20582;-77
2023/01/22 07:48:06;;;;;;;14.50;6.90;;;;;;;;;;5067611;28;20317;-77
2023/01/22 07:50:31;;;;;;;13.03;6.90;;;;;;;;;;5067488;28;20227;-77
2023/01/22 07:52:59;;;;;;;10.67;6.83;;;;;;;;;;5070552;28;20607;-77
2023/01/22 07:55:24;;;;;;;13.90;7.43;;;;;;;;;;5068537;28;20173;-76
2023/01/22 07:58:00;;;;;;;9.20;5.90;;;;;;;;;;5061960;28;20217;-75
2023/01/22 08:00:25;;;;;;;12.07;7.27;;;;;;;;;;5069711;28;20177;-76
2023/01/22 08:02:51;;;;;;;10.73;7.17;;;;;;;;;;5066527;28;20234;-76
2023/01/22 08:05:16;;;;;;;10.63;6.50;;;;;;;;;;5069243;28;20204;-75
2023/01/22 08:07:41;;;;;;;10.70;7.07;;;;;;;;;;5066189;28;20193;-77
2023/01/22 08:10:08;;;;;;;11.60;7.07;;;;;;;;;;5065327;28;20209;-76
2023/01/22 08:12:36;;;;;;;11.87;6.93;;;;;;;;;;5070095;28;20530;-75
2023/01/22 08:15:01;;;;;;;11.03;6.87;;;;;;;;;;5063471;28;20643;-75
2023/01/22 08:17:26;;;;;;;9.37;6.70;;;;;;;;;;5065782;28;20222;-76
2023/01/22 08:19:51;;;;;;;11.37;6.43;;;;;;;;;;5061033;28;20197;-75
2023/01/22 08:22:16;;;;;;;12.80;7.43;;;;;;;;;;5060552;28;20242;-76
2023/01/22 08:24:41;;;;;;;14.37;7.07;;;;;;;;;;5060492;28;20227;-78
2023/01/22 08:27:07;;;;;;;10.07;7.03;;;;;;;;;;5059758;28;20572;-78
2023/01/22 08:29:32;;;;;;;14.80;6.97;;;;;;;;;;5061463;28;20225;-75
2023/01/22 08:31:57;;;;;;;9.67;6.27;;;;;;;;;;5065804;28;20276;-78
2023/01/22 08:34:22;;;;;;;15.13;7.93;;;;;;;;;;5065103;28;20181;-77
2023/01/22 08:36:47;;;;;;;10.40;6.80;;;;;;;;;;5057300;28;20219;-78
2023/01/22 08:39:13;;;;;;;9.73;5.97;;;;;;;;;;5062789;28;20225;-76
2023/01/22 08:41:39;;;;;;;9.80;6.37;;;;;;;;;;5073651;28;20181;-74
2023/01/22 08:44:04;;;;;;;10.97;6.33;;;;;;;;;;5063621;28;20267;-79
2023/01/22 08:46:29;;;;;;;9.63;5.90;;;;;;;;;;5062983;28;20213;-77
2023/01/22 08:48:55;;;;;;;11.27;6.53;;;;;;;;;;5064839;28;20205;-77
2023/01/22 08:51:22;;;;;;;9.40;6.53;;;;;;;;;;5063644;28;21189;-76
2023/01/22 08:53:47;;;;;;;9.00;5.87;;;;;;;;;;5056299;28;20264;-75
2023/01/22 08:56:12;;;;;;;11.10;5.70;;;;;;;;;;5058334;28;20478;-76
2023/01/22 08:58:38;;;;;;;12.03;6.87;;;;;;;;;;5062357;28;20854;-77
2023/01/22 09:01:03;;;;;;;8.53;6.23;;;;;;;;;;5063916;28;20188;-76
2023/01/22 09:03:28;;;;;;;11.13;6.33;;;;;;;;;;5059484;28;20662;-77
2023/01/22 09:05:53;;;;;;;11.87;6.27;;;;;;;;;;5062934;28;20173;-78
2023/01/22 09:08:20;;;;;;;8.13;5.67;;;;;;;;;;5055719;28;20216;-77
2023/01/22 09:10:45;;;;;;;8.77;5.90;;;;;;;;;;5057005;28;20251;-76
2023/01/22 09:13:10;;;;;;;13.13;6.43;;;;;;;;;;5063255;28;20192;-76
2023/01/22 09:15:36;;;;;;;9.20;6.23;;;;;;;;;;5062583;28;20188;-76
2023/01/22 09:18:01;;;;;;;10.67;6.03;;;;;;;;;;5061358;28;20208;-77
2023/01/22 09:20:27;;;;;;;9.73;5.97;;;;;;;;;;5062820;28;20298;-76
2023/01/22 09:22:52;;;;;;;7.67;4.80;;;;;;;;;;5062717;28;20189;-76
2023/01/22 09:25:17;;;;;;;9.27;6.00;;;;;;;;;;5063587;28;20185;-77
2023/01/22 09:27:42;;;;;;;7.70;5.60;;;;;;;;;;5061668;28;20684;-76
2023/01/22 09:30:13;;;;;;;9.97;5.70;;;;;;;;;;5060953;28;20258;-74
2023/01/22 09:32:38;;;;;;;9.53;5.37;;;;;;;;;;5063132;28;20189;-77
2023/01/22 09:35:03;;;;;;;8.30;5.13;;;;;;;;;;5062984;28;20177;-76
2023/01/22 09:37:29;;;;;;;7.67;5.23;;;;;;;;;;5061655;28;20926;-77
2023/01/22 09:39:54;;;;;;;10.50;5.73;;;;;;;;;;5062300;28;20643;-76
2023/01/22 09:42:22;;;;;;;10.97;5.90;;;;;;;;;;5061722;28;20177;-76
2023/01/22 09:44:49;;;;;;;10.60;5.73;;;;;;;;;;5064645;28;20567;-76
2023/01/22 09:47:20;;;;;;;10.30;5.23;;;;;;;;;;5062857;28;20189;-76
2023/01/22 09:49:52;;;;;;;8.73;5.17;;;;;;;;;;5062596;28;21014;-76
2023/01/22 09:52:17;;;;;;;9.10;4.90;;;;;;;;;;5062573;28;20188;-76
2023/01/22 09:54:42;;;;;;;8.97;4.90;;;;;;;;;;5054932;28;20234;-76
2023/01/22 09:57:12;;;;;;;8.50;5.90;;;;;;;;;;5061918;28;20200;-77
2023/01/22 09:59:45;;;;;;;7.07;4.70;;;;;;;;;;5062003;28;20188;-77
2023/01/22 10:02:26;;;;;;;9.93;5.37;;;;;;;;;;5062244;28;20250;-76
2023/01/22 10:04:55;;;;;;;14.33;5.43;;;;;;;;;;5062380;28;20189;-77
2023/01/22 10:07:33;;;;;;;10.80;6.00;;;;;;;;;;5054046;28;20180;-76
2023/01/22 10:10:00;;;;;;;6.57;4.87;;;;;;;;;;5115230;22;20231;-72
2023/01/22 10:12:28;;;;;;;11.07;5.00;;;;;;;;;;5118746;27;20281;-72
2023/01/22 10:14:53;;;;;;;7.33;4.43;;;;;;;;;;5115767;27;20175;-72
2023/01/22 10:17:21;;;;;;;8.40;5.23;;;;;;;;;;5114474;27;20229;-72
2023/01/22 10:19:49;;;;;;;9.20;5.60;;;;;;;;;;5103635;27;20312;-72
2023/01/22 10:22:23;;;;;;;8.90;4.90;;;;;;;;;;5096325;27;20182;-72
2023/01/22 10:24:48;;;;;;;7.37;4.80;;;;;;;;;;5098193;27;20675;-72
2023/01/22 10:27:17;;;;;;;6.67;5.40;;;;;;;;;;5100002;27;20188;-73
2023/01/22 10:29:56;;;;;;;10.23;5.13;;;;;;;;;;5096853;27;20226;-72
2023/01/22 10:32:22;;;;;;;11.07;5.93;;;;;;;;;;5099774;27;20267;-72
2023/01/22 10:35:06;;;;;;;10.20;6.03;;;;;;;;;;5083340;28;20781;-72
2023/01/22 10:37:51;;;;;;;7.93;5.03;;;;;;;;;;5095711;27;20675;-72
2023/01/22 10:40:29;;;;;;;9.93;4.70;;;;;;;;;;5099479;27;20208;-72
2023/01/22 10:43:15;;;;;;;10.50;5.30;;;;;;;;;;5097079;27;20222;-72
2023/01/22 10:45:53;;;;;;;6.27;4.73;;;;;;;;;;5103020;27;20214;-72
2023/01/22 10:48:19;;;;;;;6.00;4.80;;;;;;;;;;5100726;27;20280;-73
2023/01/22 10:50:45;;;;;;;10.20;5.60;;;;;;;;;;5102657;27;20266;-72
2023/01/22 10:53:18;;;;;;;9.37;5.93;;;;;;;;;;5093378;27;20183;-73
2023/01/22 10:55:50;;;;;;;8.00;5.20;;;;;;;;;;5098713;27;20188;-73
2023/01/22 10:58:17;;;;;;;7.90;5.47;;;;;;;;;;5098493;27;20691;-73
2023/01/22 11:00:42;;;;;;;7.97;5.07;;;;;;;;;;5095977;27;20206;-72
2023/01/22 11:03:19;;;;;;;8.77;5.30;;;;;;;;;;5100136;27;20289;-72
2023/01/22 11:05:45;;;;;;;8.00;4.87;;;;;;;;;;5098305;27;20183;-73
2023/01/22 11:08:13;;;;;;;10.47;5.17;;;;;;;;;;5096438;27;20228;-72
2023/01/22 11:10:43;;;;;;;8.63;5.77;;;;;;;;;;5096135;27;20206;-73
2023/01/22 11:13:41;;;;;;;8.23;5.17;;;;;;;;;;5097957;27;20188;-73
2023/01/22 11:16:12;;;;;;;7.07;5.43;;;;;;;;;;5047030;27;20258;-75
2023/01/22 11:18:39;;;;;;;8.53;5.33;;;;;;;;;;5085078;28;20200;-75
2023/01/22 11:21:11;;;;;;;7.70;5.43;;;;;;;;;;5099306;27;20172;-71
2023/01/22 11:23:42;;;;;;;7.43;5.17;;;;;;;;;;5100211;27;20550;-74
2023/01/22 11:26:20;;;;;;;8.63;4.73;;;;;;;;;;5095055;28;20198;-72
2023/01/22 11:29:03;;;;;;;7.17;5.07;;;;;;;;;;5098020;27;20191;-72
2023/01/22 11:31:41;;;;;;;8.17;5.57;;;;;;;;;;5098284;27;20176;-72
2023/01/22 11:34:15;;;;;;;7.77;5.43;;;;;;;;;;5100741;27;20192;-72
2023/01/22 11:37:10;;;;;;;8.80;5.97;;;;;;;;;;5094239;28;20322;-73
2023/01/22 11:39:35;;;;;;;8.53;5.13;;;;;;;;;;5076294;27;20206;-72
2023/01/22 11:42:19;;;;;;;6.53;5.17;;;;;;;;;;5100882;28;20176;-72
2023/01/22 11:45:02;;;;;;;6.77;5.07;;;;;;;;;;5101473;28;20179;-73
2023/01/22 11:47:33;;;;;;;9.93;5.13;;;;;;;;;;5084349;28;20186;-73
2023/01/22 11:50:05;;;;;;;7.27;4.87;;;;;;;;;;5093945;28;20563;-72
2023/01/22 11:52:48;;;;;;;8.87;4.90;;;;;;;;;;5099762;28;20221;-72
2023/01/22 11:55:32;;;;;;;7.17;4.77;;;;;;;;;;5098430;28;20172;-73
2023/01/22 11:57:57;;;;;;;6.70;4.83;;;;;;;;;;5096471;28;20263;-73
2023/01/22 12:00:30;;;;;;;6.17;4.73;;;;;;;;;;5086957;28;20171;-73
2023/01/22 12:03:15;;;;;;;8.07;4.87;;;;;;;;;;5086650;28;20679;-73
2023/01/22 12:05:46;;;;;;;6.43;5.33;;;;;;;;;;5100870;27;20175;-73
2023/01/22 12:08:18;;;;;;;8.50;4.60;;;;;;;;;;5088254;27;20298;-73
2023/01/22 12:10:50;;;;;;;7.37;4.73;;;;;;;;;;5103126;27;20180;-72
2023/01/22 12:13:15;;;;;;;6.57;4.73;;;;;;;;;;5103905;27;20193;-73
2023/01/22 12:15:50;;;;;;;8.33;5.23;;;;;;;;;;5101730;27;20168;-73
2023/01/22 12:18:18;;;;;;;4.83;3.97;;;;;;;;;;5082058;27;20231;-73
2023/01/22 12:21:02;;;;;;;8.47;5.70;;;;;;;;;;5103503;27;20182;-73
2023/01/22 12:23:36;;;;;;;8.17;5.13;;;;;;;;;;5103982;27;20168;-73
2023/01/22 12:26:05;;;;;;;8.20;5.60;;;;;;;;;;5089417;28;20175;-73
2023/01/22 12:28:43;;;;;;;6.17;4.70;;;;;;;;;;5101532;27;20203;-73
2023/01/22 12:31:19;;;;;;;6.27;5.27;;;;;;;;;;5098941;27;20171;-73
2023/01/22 12:33:44;;;;;;;10.70;5.37;;;;;;;;;;5103001;27;20180;-73
2023/01/22 12:36:12;;;;;;;8.23;5.63;;;;;;;;;;5101675;27;20178;-72
2023/01/22 12:38:49;;;;;;;7.17;4.23;;;;;;;;;;5082236;27;20199;-73
2023/01/22 12:41:33;;;;;;;7.03;5.00;;;;;;;;;;5098859;27;20175;-71
2023/01/22 12:44:09;;;;;;;8.50;5.77;;;;;;;;;;5103857;27;20583;-72
2023/01/22 12:46:37;;;;;;;5.93;5.30;;;;;;;;;;5102931;27;20197;-72
2023/01/22 12:49:07;;;;;;;8.60;5.53;;;;;;;;;;5097892;27;20216;-71
2023/01/22 12:51:37;;;;;;;6.27;4.60;;;;;;;;;;5086604;27;20183;-72
2023/01/22 12:54:08;;;;;;;7.37;4.97;;;;;;;;;;5097139;27;20296;-72
2023/01/22 12:56:34;;;;;;;10.27;5.07;;;;;;;;;;5083564;28;20656;-72
2023/01/22 12:58:59;;;;;;;8.77;5.33;;;;;;;;;;5098573;27;20282;-72
2023/01/22 13:01:31;;;;;;;6.77;5.10;;;;;;;;;;5100087;27;20613;-74
2023/01/22 13:04:00;;;;;;;6.70;5.03;;;;;;;;;;5100204;27;20180;-73
2023/01/22 13:06:36;;;;;;;10.07;5.93;;;;;;;;;;5099709;27;20182;-72
2023/01/22 13:09:02;;;;;;;7.17;5.13;;;;;;;;;;5096306;27;20215;-72
2023/01/22 13:11:33;;;;;;;8.30;4.90;;;;;;;;;;5106085;27;20182;-72
2023/01/22 13:14:17;;;;;;;6.70;5.40;;;;;;;;;;5097923;27;20176;-72
2023/01/22 13:16:49;;;;;;;7.27;6.20;;;;;;;;;;5100679;27;20194;-73
2023/01/22 13:19:22;;;;;;;11.47;5.33;;;;;;;;;;5084598;28;20273;-73
2023/01/22 13:21:48;;;;;;;6.83;4.73;;;;;;;;;;5097230;27;20203;-72
2023/01/22 13:24:15;;;;;;;6.40;5.50;;;;;;;;;;5087459;27;20172;-72
2023/01/22 13:26:48;;;;;;;6.93;4.83;;;;;;;;;;5097972;27;20180;-72
2023/01/22 13:29:18;;;;;;;7.43;4.83;;;;;;;;;;5097107;27;20286;-72
2023/01/22 13:31:51;;;;;;;8.97;5.30;;;;;;;;;;5077863;27;20239;-72
2023/01/22 13:34:16;;;;;;;7.13;5.33;;;;;;;;;;5101471;27;20186;-72
2023/01/22 13:36:45;;;;;;;7.23;5.37;;;;;;;;;;5097406;27;20203;-72
2023/01/22 13:39:22;;;;;;;9.27;5.43;;;;;;;;;;5083250;27;20274;-72
2023/01/22 13:41:50;;;;;;;8.90;5.40;;;;;;;;;;5096706;27;20286;-72
2023/01/22 13:44:17;;;;;;;7.23;5.00;;;;;;;;;;5100079;27;20553;-72
2023/01/22 13:46:42;;;;;;;6.97;5.50;;;;;;;;;;5105083;27;20202;-72
2023/01/22 13:49:19;;;;;;;12.10;5.67;;;;;;;;;;5096078;27;20233;-72
2023/01/22 13:51:44;;;;;;;10.00;5.80;;;;;;;;;;5101632;27;20183;-72
2023/01/22 13:54:14;;;;;;;7.77;5.33;;;;;;;;;;5101844;27;20190;-71
2023/01/22 13:56:40;;;;;;;9.97;6.00;;;;;;;;;;5101407;27;20549;-73
2023/01/22 13:59:26;;;;;;;7.60;5.50;;;;;;;;;;5094038;27;20238;-73
2023/01/22 14:01:52;;;;;;;9.43;5.77;;;;;;;;;;5083110;28;20201;-74
2023/01/22 14:04:24;;;;;;;9.93;6.13;;;;;;;;;;5096958;27;20194;-72
2023/01/22 14:06:50;;;;;;;8.47;5.93;;;;;;;;;;5096444;27;20188;-72
2023/01/22 14:09:47;;;;;;;8.10;5.40;;;;;;;;;;5099328;27;20741;-72
2023/01/22 14:12:14;;;;;;;8.87;5.80;;;;;;;;;;5051666;27;20191;-73
2023/01/22 14:14:40;;;;;;;12.63;5.93;;;;;;;;;;5097021;27;20180;-73
2023/01/22 14:17:05;;;;;;;8.17;6.33;;;;;;;;;;5099006;27;20211;-72
2023/01/22 14:19:30;;;;;;;9.10;5.33;;;;;;;;;;5079020;27;20683;-72
2023/01/22 14:21:56;;;;;;;9.53;6.07;;;;;;;;;;5109053;27;20179;-73
2023/01/22 14:24:21;;;;;;;8.33;5.70;;;;;;;;;;5108294;28;20195;-72
2023/01/22 14:26:47;;;;;;;9.63;7.00;;;;;;;;;;5111320;28;20449;-73
2023/01/22 14:29:12;;;;;;;8.47;5.67;;;;;;;;;;5100241;27;20221;-73
2023/01/22 14:31:37;;;;;;;10.07;6.13;;;;;;;;;;5096778;27;20180;-73
2023/01/22 14:34:02;;;;;;;10.70;6.83;;;;;;;;;;5098160;27;20202;-72
2023/01/22 14:36:28;;;;;;;10.30;7.10;;;;;;;;;;5077430;27;20184;-73
2023/01/22 14:38:54;;;;;;;10.67;6.27;;;;;;;;;;5097644;27;20206;-73
2023/01/22 14:41:19;;;;;;;10.17;7.17;;;;;;;;;;5099092;27;20180;-73
2023/01/22 14:43:44;;;;;;;11.67;7.03;;;;;;;;;;5098815;27;20739;-73
2023/01/22 14:46:09;;;;;;;8.97;6.30;;;;;;;;;;5099081;27;20195;-73
2023/01/22 14:48:35;;;;;;;11.10;7.33;;;;;;;;;;5096872;27;20207;-73